Enderby, Canada
Current Conditions -  °F | °C
As of 12:00 PM on Monday 22 Dec 2014 (Local Time) from CYLW Reporting Station
Overcast Overcast  
Wind Chill: 43°   Ceiling: 8000
Heat Index: 43°   Visibility: 9mi
Dew Point: 32°   Wind: 2mph
Humidity: 66%   Direction: NA
Pressure: 30.24"   Gusts: NA
Location:  50.55°N, 119.14°W
Report Text: CYLW 222000Z AUTO VRB02KT 9SM OVC080 06/M00 A3024 RMK SLP253
Loading
Personal Weather Stations






























Interactive Weather Map New forecast layout! Learn more

10-Day Weather Forecast

Advertisements
Track Severe Weather on mobile